createdAt,value
2022-08-24T03:16:24.037Z,88.13
2022-08-24T03:19:34.790Z,88.07
2022-08-24T03:22:44.974Z,86.94
2022-08-24T03:25:56.310Z,86.36
2022-08-24T03:29:06.376Z,86.50
2022-08-24T03:32:18.646Z,85.69
2022-08-24T03:35:28.509Z,87.24
2022-08-24T03:38:38.679Z,86.85
2022-08-24T03:41:49.256Z,86.80
2022-08-24T03:44:59.072Z,86.62
2022-08-24T03:48:10.403Z,86.38
2022-08-24T03:51:24.496Z,87.12
2022-08-24T03:54:34.108Z,87.40
2022-08-24T03:57:43.950Z,87.43
2022-08-24T04:00:53.477Z,86.88
2022-08-24T04:04:05.352Z,87.80
2022-08-24T04:07:18.693Z,87.12
2022-08-24T04:10:28.603Z,87.15
2022-08-24T04:13:38.154Z,87.34
2022-08-24T04:16:55.296Z,87.57
2022-08-24T04:20:14.515Z,87.99
2022-08-24T04:23:24.226Z,88.28
2022-08-24T04:26:54.070Z,88.67
2022-08-24T04:30:04.154Z,88.84
2022-08-24T04:33:20.883Z,88.26
2022-08-24T04:36:32.523Z,88.02
2022-08-24T04:39:42.981Z,87.33
2022-08-24T04:43:00.453Z,87.64
2022-08-24T04:46:10.575Z,88.06
2022-08-24T04:49:21.552Z,88.07
2022-08-24T04:52:32.432Z,88.00
2022-08-24T04:55:45.153Z,87.54
2022-08-24T04:58:56.330Z,87.31
2022-08-24T06:41:28.595Z,81.27
2022-08-24T06:44:38.778Z,81.54
2022-08-24T06:47:56.179Z,81.24
2022-08-24T06:51:10.651Z,79.51
2022-08-24T06:54:21.739Z,79.75
2022-08-24T06:57:33.479Z,79.00
2022-08-24T07:00:43.426Z,76.75
2022-08-24T07:03:53.999Z,75.29
2022-08-24T07:07:23.568Z,75.40
2022-08-24T07:10:34.655Z,74.32
2022-08-24T07:13:46.537Z,74.44
2022-08-24T07:16:57.323Z,73.87
2022-08-24T07:20:08.941Z,71.50
2022-08-24T07:23:42.310Z,70.48
2022-08-24T07:26:53.600Z,67.32
2022-08-24T07:30:25.946Z,65.75
2022-08-24T07:33:36.008Z,65.17
2022-08-24T07:36:45.765Z,64.14
2022-08-24T07:39:55.750Z,62.93
2022-08-24T07:43:05.293Z,61.35
2022-08-24T07:46:16.772Z,60.00
2022-08-24T07:49:36.974Z,59.70
2022-08-24T07:52:48.473Z,59.74
2022-08-24T07:55:58.292Z,59.75
2022-08-24T07:59:12.500Z,59.08
2022-08-24T09:03:23.539Z,43.49
2022-08-24T09:07:08.405Z,43.06
2022-08-24T09:10:36.556Z,41.27
2022-08-24T09:14:06.641Z,40.46
2022-08-24T09:17:42.925Z,40.80
2022-08-24T09:21:09.137Z,40.21
2022-08-24T09:24:37.715Z,38.89
2022-08-24T09:28:12.989Z,38.42
2022-08-24T09:31:34.067Z,38.48
2022-08-24T09:34:56.973Z,37.09
2022-08-24T09:38:23.946Z,36.86
2022-08-24T09:41:54.698Z,36.17
2022-08-24T09:45:26.032Z,36.09
2022-08-24T09:49:01.672Z,36.02
2022-08-24T09:52:33.496Z,36.45
2022-08-24T09:56:00.678Z,36.12
2022-08-24T09:59:25.785Z,36.55
2022-08-24T10:02:49.964Z,35.57
2022-08-24T10:06:13.013Z,36.13
2022-08-24T10:09:46.365Z,35.89
2022-08-24T10:13:06.462Z,35.20
2022-08-24T10:16:28.126Z,35.49
2022-08-24T10:19:52.524Z,35.38
2022-08-24T10:23:11.982Z,34.33
2022-08-24T10:26:27.134Z,34.97
2022-08-24T10:30:00.694Z,34.27
2022-08-24T10:33:18.352Z,35.43
2022-08-24T10:36:45.670Z,33.21
2022-08-24T10:40:11.233Z,33.66
2022-08-24T10:43:38.009Z,33.26
2022-08-24T10:46:58.758Z,32.95
2022-08-24T10:50:30.896Z,33.40
2022-08-24T10:53:41.230Z,33.78
2022-08-24T10:57:06.489Z,32.23
2022-08-24T11:00:23.192Z,31.76
2022-08-24T11:03:48.291Z,30.96
2022-08-24T11:07:09.141Z,30.43
2022-08-24T11:10:28.030Z,30.64
2022-08-24T11:13:52.878Z,30.91
2022-08-24T11:17:15.576Z,30.11
2022-08-24T11:20:30.182Z,30.95
2022-08-24T11:23:41.908Z,29.83
2022-08-24T11:26:55.764Z,29.71
2022-08-24T11:30:12.252Z,31.07
2022-08-24T11:33:29.864Z,31.22
2022-08-24T11:36:42.142Z,31.35
2022-08-24T11:39:52.143Z,31.30
2022-08-24T11:43:17.728Z,32.17
2022-08-24T11:46:33.699Z,31.27
2022-08-24T11:49:49.121Z,31.43
2022-08-24T11:53:12.490Z,30.41
2022-08-24T11:56:28.955Z,30.01
2022-08-24T11:59:48.273Z,30.02
2022-08-24T12:03:05.591Z,29.67
2022-08-24T12:06:32.323Z,30.55
2022-08-24T12:09:59.997Z,30.91
2022-08-24T12:13:17.758Z,29.90
2022-08-24T12:16:35.949Z,31.55
2022-08-24T12:19:49.825Z,30.17
2022-08-24T12:23:03.372Z,29.89
2022-08-24T12:26:26.377Z,30.59
2022-08-24T12:29:40.181Z,30.48
2022-08-24T12:32:56.820Z,30.55
2022-08-24T12:36:16.984Z,30.35
2022-08-24T12:39:32.523Z,29.52
2022-08-24T12:42:52.582Z,30.01
2022-08-24T12:46:06.668Z,30.02
2022-08-24T12:49:23.390Z,29.72
2022-08-24T12:53:01.122Z,28.95
2022-08-24T12:56:30.801Z,29.40
2022-08-24T12:59:49.391Z,29.43
2022-08-24T13:03:03.345Z,29.62
2022-08-24T13:06:21.760Z,29.00
2022-08-24T13:09:36.424Z,29.78
2022-08-24T13:12:55.170Z,28.89
2022-08-24T13:16:07.684Z,29.16
2022-08-24T13:19:33.447Z,28.69
2022-08-24T13:23:01.355Z,29.44
2022-08-24T13:26:26.090Z,29.05
2022-08-24T13:29:36.648Z,29.28
2022-08-24T13:33:04.789Z,29.98
2022-08-24T13:36:41.820Z,29.33
2022-08-24T13:40:08.215Z,29.61
2022-08-24T13:43:29.752Z,29.19
2022-08-24T13:46:51.307Z,29.66
2022-08-24T13:50:12.041Z,30.08
2022-08-24T13:53:42.752Z,29.72
2022-08-24T13:57:06.741Z,30.59
2022-08-24T14:00:36.905Z,30.45
2022-08-24T14:04:06.666Z,30.87
2022-08-24T14:07:25.585Z,31.62
2022-08-24T14:10:45.776Z,32.00
2022-08-24T14:14:06.952Z,30.80
2022-08-24T14:17:37.366Z,31.55
2022-08-24T14:21:02.211Z,31.03
2022-08-24T14:24:26.957Z,31.57
2022-08-24T14:27:42.774Z,31.74
2022-08-24T14:31:18.365Z,31.46
2022-08-24T14:34:36.334Z,31.90
2022-08-24T14:37:57.284Z,31.76
2022-08-24T14:41:21.356Z,32.72
2022-08-24T14:44:50.001Z,32.69
2022-08-24T14:48:10.128Z,31.59
2022-08-24T14:51:43.999Z,31.64
2022-08-24T14:55:07.982Z,32.38
2022-08-24T14:58:30.424Z,32.75
2022-08-24T15:01:44.913Z,31.55
2022-08-24T15:05:23.908Z,32.17
2022-08-24T15:08:42.858Z,31.31
2022-08-24T15:12:24.438Z,31.71
2022-08-24T15:15:41.611Z,31.88
2022-08-24T15:19:03.588Z,31.76
2022-08-24T15:22:27.074Z,32.39
2022-08-24T15:25:45.811Z,32.47
2022-08-24T15:28:59.895Z,33.32
2022-08-24T15:32:13.699Z,32.24
2022-08-24T15:35:30.128Z,32.16
2022-08-24T15:38:44.708Z,31.30
2022-08-24T15:41:56.351Z,30.90
2022-08-24T15:45:08.253Z,30.92
2022-08-24T15:48:25.378Z,30.42
2022-08-24T15:51:52.000Z,29.81
2022-08-24T15:55:06.281Z,30.10
2022-08-24T15:58:28.980Z,30.14
2022-08-24T16:01:50.918Z,30.07
2022-08-24T16:05:14.435Z,29.49
2022-08-24T16:08:25.570Z,29.68
2022-08-24T16:11:39.456Z,29.38
2022-08-24T16:14:58.907Z,29.80
2022-08-24T16:18:09.545Z,30.33
2022-08-24T16:21:34.059Z,30.45
2022-08-24T16:24:45.559Z,30.13
2022-08-24T16:28:01.049Z,30.59
2022-08-24T16:31:12.578Z,30.08
2022-08-24T16:34:29.769Z,30.65
2022-08-24T16:37:44.319Z,30.65
2022-08-24T16:40:55.282Z,31.75
2022-08-24T16:44:05.853Z,32.67
2022-08-24T16:47:16.672Z,32.48
2022-08-24T16:50:27.699Z,33.33
2022-08-24T16:58:43.811Z,33.04
2022-08-24T17:01:53.843Z,33.88
2022-08-24T17:05:04.188Z,33.03
2022-08-24T17:08:14.181Z,32.59
2022-08-24T17:12:34.228Z,32.74
2022-08-24T17:15:53.210Z,33.18
2022-08-24T17:19:07.457Z,33.40
2022-08-24T17:22:17.808Z,34.07
2022-08-24T17:25:30.029Z,33.85
2022-08-24T17:28:43.289Z,34.56
2022-08-24T17:31:54.769Z,34.50
2022-08-24T17:35:05.512Z,35.46
2022-08-24T17:38:15.553Z,36.00
2022-08-24T17:41:27.360Z,35.72
2022-08-24T17:44:39.189Z,37.21
2022-08-24T17:47:53.396Z,37.14
2022-08-24T17:51:03.955Z,37.86
2022-08-24T17:54:14.087Z,38.96
2022-08-24T17:57:27.704Z,39.28
2022-08-24T18:00:39.013Z,39.54
2022-08-24T18:03:51.513Z,40.63
2022-08-24T18:07:04.217Z,41.70
2022-08-24T18:10:14.676Z,42.45
2022-08-24T18:13:24.815Z,43.43
2022-08-24T18:16:35.215Z,44.52
2022-08-24T18:19:48.371Z,44.28
2022-08-24T18:22:58.517Z,44.97
2022-08-24T18:26:11.192Z,44.96
2022-08-24T18:29:23.094Z,45.48
2022-08-24T18:32:37.741Z,45.88
2022-08-24T18:35:53.173Z,46.67
2022-08-24T18:39:06.978Z,47.37
2022-08-24T18:42:17.228Z,48.06
2022-08-24T18:45:31.847Z,48.42
2022-08-24T18:48:41.382Z,48.14
2022-08-24T18:51:52.421Z,48.76
2022-08-24T18:55:03.371Z,48.58
2022-08-24T18:58:13.089Z,48.94
2022-08-24T19:01:23.024Z,50.30
2022-08-24T19:04:33.505Z,50.24
2022-08-24T19:07:46.317Z,51.21
2022-08-24T19:10:56.278Z,51.23
2022-08-24T19:14:06.192Z,51.26
2022-08-24T19:17:16.045Z,51.00
2022-08-24T19:20:26.864Z,51.47
2022-08-24T19:23:47.130Z,52.59
2022-08-24T19:26:56.690Z,52.54
2022-08-24T19:30:12.810Z,53.87
2022-08-24T19:33:26.356Z,54.02
2022-08-24T19:36:35.870Z,54.47
2022-08-24T19:39:47.893Z,55.83
2022-08-24T19:42:59.731Z,55.77
2022-08-24T19:46:10.538Z,56.23
